sensor_id;sensor_type;location;lat;lon;timestamp;pressure;altitude;pressure_sealevel;temperature;humidity
50057;BME280;36875;49.468;11.200;2023-03-15T00:00:09;97273.75;;;21.68;38.91
50057;BME280;36875;49.468;11.200;2023-03-15T00:02:35;97271.84;;;21.69;38.63
50057;BME280;36875;49.468;11.200;2023-03-15T00:05:01;97258.03;;;21.65;38.68
50057;BME280;36875;49.468;11.200;2023-03-15T00:07:27;97259.63;;;21.66;38.76
50057;BME280;36875;49.468;11.200;2023-03-15T00:09:53;97255.28;;;21.65;38.83
50057;BME280;36875;49.468;11.200;2023-03-15T00:12:19;97258.03;;;21.65;39.03
50057;BME280;36875;49.468;11.200;2023-03-15T00:14:47;97266.25;;;21.65;38.92
50057;BME280;36875;49.468;11.200;2023-03-15T00:17:14;97265.75;;;21.63;38.97
50057;BME280;36875;49.468;11.200;2023-03-15T00:19:39;97272.38;;;21.62;38.84
50057;BME280;36875;49.468;11.200;2023-03-15T00:22:05;97285.63;;;21.60;39.09
50057;BME280;36875;49.468;11.200;2023-03-15T00:24:30;97290.63;;;21.58;38.82
50057;BME280;36875;49.468;11.200;2023-03-15T00:26:56;97279.22;;;21.56;38.69
50057;BME280;36875;49.468;11.200;2023-03-15T00:29:21;97295.66;;;21.56;38.94
50057;BME280;36875;49.468;11.200;2023-03-15T00:31:47;97300.63;;;21.54;38.72
50057;BME280;36875;49.468;11.200;2023-03-15T00:34:14;97302.91;;;21.52;38.96
50057;BME280;36875;49.468;11.200;2023-03-15T00:36:39;97308.06;;;21.53;38.88
50057;BME280;36875;49.468;11.200;2023-03-15T00:39:08;97307.59;;;21.51;39.09
50057;BME280;36875;49.468;11.200;2023-03-15T00:41:34;97305.19;;;21.50;38.96
50057;BME280;36875;49.468;11.200;2023-03-15T00:43:59;97306.66;;;21.47;38.90
50057;BME280;36875;49.468;11.200;2023-03-15T00:46:25;97315.22;;;21.46;39.06
50057;BME280;36875;49.468;11.200;2023-03-15T00:48:51;97317.47;;;21.44;38.82
50057;BME280;36875;49.468;11.200;2023-03-15T00:51:20;97323.59;;;21.41;38.91
50057;BME280;36875;49.468;11.200;2023-03-15T00:53:46;97325.53;;;21.40;39.01
50057;BME280;36875;49.468;11.200;2023-03-15T00:56:14;97332.94;;;21.40;38.94
50057;BME280;36875;49.468;11.200;2023-03-15T00:58:40;97335.19;;;21.37;38.79
50057;BME280;36875;49.468;11.200;2023-03-15T01:01:06;97341.81;;;21.36;38.97
50057;BME280;36875;49.468;11.200;2023-03-15T01:03:32;97349.56;;;21.34;38.82
50057;BME280;36875;49.468;11.200;2023-03-15T01:05:57;97360.53;;;21.34;38.68
50057;BME280;36875;49.468;11.200;2023-03-15T01:08:24;97364.69;;;21.32;38.82
50057;BME280;36875;49.468;11.200;2023-03-15T01:10:50;97362.31;;;21.30;38.79
50057;BME280;36875;49.468;11.200;2023-03-15T01:13:15;97370.88;;;21.29;38.89
50057;BME280;36875;49.468;11.200;2023-03-15T01:15:44;97376.66;;;21.27;38.99
50057;BME280;36875;49.468;11.200;2023-03-15T01:18:10;97383.25;;;21.26;38.96
50057;BME280;36875;49.468;11.200;2023-03-15T01:20:35;97382.78;;;21.24;38.77
50057;BME280;36875;49.468;11.200;2023-03-15T01:23:01;97387.81;;;21.22;38.84
50057;BME280;36875;49.468;11.200;2023-03-15T01:25:27;97390.06;;;21.20;38.88
50057;BME280;36875;49.468;11.200;2023-03-15T01:27:53;97388.44;;;21.19;38.66
50057;BME280;36875;49.468;11.200;2023-03-15T01:30:18;97403.28;;;21.18;38.64
50057;BME280;36875;49.468;11.200;2023-03-15T01:32:44;97403.13;;;21.14;38.70
50057;BME280;36875;49.468;11.200;2023-03-15T01:35:09;97410.09;;;21.12;39.04
50057;BME280;36875;49.468;11.200;2023-03-15T01:37:35;97411.69;;;21.13;39.11
50057;BME280;36875;49.468;11.200;2023-03-15T01:40:00;97404.63;;;21.12;38.73
50057;BME280;36875;49.468;11.200;2023-03-15T01:42:27;97398.19;;;21.08;39.11
50057;BME280;36875;49.468;11.200;2023-03-15T01:44:54;97399.66;;;21.05;38.88
50057;BME280;36875;49.468;11.200;2023-03-15T01:47:21;97409.81;;;21.05;38.83
50057;BME280;36875;49.468;11.200;2023-03-15T01:49:53;97404.19;;;21.01;38.95
50057;BME280;36875;49.468;11.200;2023-03-15T01:52:22;97407.72;;;21.02;38.81
50057;BME280;36875;49.468;11.200;2023-03-15T01:54:51;97418.19;;;20.99;38.94
50057;BME280;36875;49.468;11.200;2023-03-15T01:57:23;97426.41;;;20.99;38.99
50057;BME280;36875;49.468;11.200;2023-03-15T01:59:55;97425.09;;;20.97;38.64
50057;BME280;36875;49.468;11.200;2023-03-15T02:02:23;97428.19;;;20.95;38.71
50057;BME280;36875;49.468;11.200;2023-03-15T02:04:53;97425.78;;;20.94;38.73
50057;BME280;36875;49.468;11.200;2023-03-15T02:07:23;97428.03;;;20.92;38.67
50057;BME280;36875;49.468;11.200;2023-03-15T02:09:56;97435.44;;;20.91;38.80
50057;BME280;36875;49.468;11.200;2023-03-15T02:12:24;97440.44;;;20.89;38.95
50057;BME280;36875;49.468;11.200;2023-03-15T02:14:52;97445.44;;;20.87;38.87
50057;BME280;36875;49.468;11.200;2023-03-15T02:17:21;97441.09;;;20.86;38.84
50057;BME280;36875;49.468;11.200;2023-03-15T02:19:54;97444.16;;;20.85;38.81
50057;BME280;36875;49.468;11.200;2023-03-15T02:22:26;97441.75;;;20.83;38.72
50057;BME280;36875;49.468;11.200;2023-03-15T02:25:02;97444.81;;;20.82;38.73
50057;BME280;36875;49.468;11.200;2023-03-15T02:27:33;97450.59;;;20.80;38.71
50057;BME280;36875;49.468;11.200;2023-03-15T02:30:00;97462.69;;;20.79;38.42
50057;BME280;36875;49.468;11.200;2023-03-15T02:32:27;97458.66;;;20.76;38.81
50057;BME280;36875;49.468;11.200;2023-03-15T02:34:53;97462.53;;;20.75;38.58
50057;BME280;36875;49.468;11.200;2023-03-15T02:37:18;97469.13;;;20.74;38.82
50057;BME280;36875;49.468;11.200;2023-03-15T02:39:44;97476.84;;;20.72;38.63
50057;BME280;36875;49.468;11.200;2023-03-15T02:42:09;97477.16;;;20.71;38.90
50057;BME280;36875;49.468;11.200;2023-03-15T02:44:39;97492.78;;;20.70;38.73
50057;BME280;36875;49.468;11.200;2023-03-15T02:47:08;97495.84;;;20.69;38.46
50057;BME280;36875;49.468;11.200;2023-03-15T02:49:38;97492.63;;;20.67;38.81
50057;BME280;36875;49.468;11.200;2023-03-15T02:52:05;97494.91;;;20.65;38.67
50057;BME280;36875;49.468;11.200;2023-03-15T02:54:31;97507.41;;;20.66;38.46
50057;BME280;36875;49.468;11.200;2023-03-15T02:56:58;97508.09;;;20.63;38.61
50057;BME280;36875;49.468;11.200;2023-03-15T02:59:24;97518.19;;;20.62;38.64
50057;BME280;36875;49.468;11.200;2023-03-15T03:01:50;97513.09;;;20.60;38.66
50057;BME280;36875;49.468;11.200;2023-03-15T03:04:16;97518.84;;;20.59;38.33
50057;BME280;36875;49.468;11.200;2023-03-15T03:06:42;97533.63;;;20.58;38.84
50057;BME280;36875;49.468;11.200;2023-03-15T03:09:08;97531.22;;;20.56;38.57
50057;BME280;36875;49.468;11.200;2023-03-15T03:11:34;97542.50;;;20.55;38.53
50057;BME280;36875;49.468;11.200;2023-03-15T03:13:59;97534.13;;;20.51;38.44
50057;BME280;36875;49.468;11.200;2023-03-15T03:16:25;97553.75;;;20.53;38.39
50057;BME280;36875;49.468;11.200;2023-03-15T03:18:51;97560.31;;;20.52;38.54
50057;BME280;36875;49.468;11.200;2023-03-15T03:21:17;97561.31;;;20.48;38.69
50057;BME280;36875;49.468;11.200;2023-03-15T03:23:43;97576.25;;;20.50;38.58
50057;BME280;36875;49.468;11.200;2023-03-15T03:26:12;97578.50;;;20.48;38.47
50057;BME280;36875;49.468;11.200;2023-03-15T03:28:41;97584.59;;;20.45;38.41
50057;BME280;36875;49.468;11.200;2023-03-15T03:31:15;97586.06;;;20.42;38.41
50057;BME280;36875;49.468;11.200;2023-03-15T03:33:41;97600.53;;;20.43;38.45
50057;BME280;36875;49.468;11.200;2023-03-15T03:36:08;97607.13;;;20.42;38.47
50057;BME280;36875;49.468;11.200;2023-03-15T03:38:33;97610.66;;;20.42;38.26
50057;BME280;36875;49.468;11.200;2023-03-15T03:40:59;97614.03;;;20.39;38.43
50057;BME280;36875;49.468;11.200;2023-03-15T03:43:24;97609.69;;;20.38;38.20
50057;BME280;36875;49.468;11.200;2023-03-15T03:45:50;97619.00;;;20.37;38.45
50057;BME280;36875;49.468;11.200;2023-03-15T03:48:15;97623.69;;;20.37;38.28
50057;BME280;36875;49.468;11.200;2023-03-15T03:50:40;97632.19;;;20.35;38.25
50057;BME280;36875;49.468;11.200;2023-03-15T03:53:07;97635.25;;;20.34;38.39
50057;BME280;36875;49.468;11.200;2023-03-15T03:55:33;97642.66;;;20.33;38.31
50057;BME280;36875;49.468;11.200;2023-03-15T03:57:58;97639.44;;;20.31;38.50
50057;BME280;36875;49.468;11.200;2023-03-15T04:00:24;97647.94;;;20.30;38.16
50057;BME280;36875;49.468;11.200;2023-03-15T04:02:49;97656.16;;;20.30;38.42
50057;BME280;36875;49.468;11.200;2023-03-15T04:05:18;97656.47;;;20.28;38.17
50057;BME280;36875;49.468;11.200;2023-03-15T04:07:44;97661.91;;;20.28;38.26
50057;BME280;36875;49.468;11.200;2023-03-15T04:10:11;97668.84;;;20.26;38.62
50057;BME280;36875;49.468;11.200;2023-03-15T04:12:40;97678.16;;;20.25;38.24
50057;BME280;36875;49.468;11.200;2023-03-15T04:15:06;97676.53;;;20.23;38.43
50057;BME280;36875;49.468;11.200;2023-03-15T04:17:31;97673.31;;;20.21;38.42
50057;BME280;36875;49.468;11.200;2023-03-15T04:19:57;97676.03;;;20.21;38.36
50057;BME280;36875;49.468;11.200;2023-03-15T04:22:23;97671.72;;;20.20;38.28
50057;BME280;36875;49.468;11.200;2023-03-15T04:24:49;97676.69;;;20.18;38.42
50057;BME280;36875;49.468;11.200;2023-03-15T04:27:16;97677.00;;;20.17;38.32
50057;BME280;36875;49.468;11.200;2023-03-15T04:29:41;97693.41;;;20.17;38.36
50057;BME280;36875;49.468;11.200;2023-03-15T04:32:08;97694.50;;;20.16;38.45
50057;BME280;36875;49.468;11.200;2023-03-15T04:34:33;97692.91;;;20.15;38.27
50057;BME280;36875;49.468;11.200;2023-03-15T04:37:03;97692.44;;;20.13;38.38
50057;BME280;36875;49.468;11.200;2023-03-15T04:39:28;97708.00;;;20.12;38.31
50057;BME280;36875;49.468;11.200;2023-03-15T04:41:54;97708.66;;;20.09;38.14
50057;BME280;36875;49.468;11.200;2023-03-15T04:44:21;97721.19;;;20.10;38.31
50057;BME280;36875;49.468;11.200;2023-03-15T04:46:50;97726.16;;;20.08;38.27
50057;BME280;36875;49.468;11.200;2023-03-15T04:49:16;97726.16;;;20.08;38.36
50057;BME280;36875;49.468;11.200;2023-03-15T04:51:41;97733.88;;;20.06;38.10
50057;BME280;36875;49.468;11.200;2023-03-15T04:54:07;97739.94;;;20.03;38.22
50057;BME280;36875;49.468;11.200;2023-03-15T04:56:32;97747.03;;;20.04;37.83
50057;BME280;36875;49.468;11.200;2023-03-15T04:58:58;97749.75;;;20.04;38.42
50057;BME280;36875;49.468;11.200;2023-03-15T05:01:27;97742.50;;;19.99;38.13
50057;BME280;36875;49.468;11.200;2023-03-15T05:03:54;97753.91;;;20.01;38.23
50057;BME280;36875;49.468;11.200;2023-03-15T05:06:19;97747.97;;;19.99;38.38
50057;BME280;36875;49.468;11.200;2023-03-15T05:08:45;97752.63;;;19.99;38.07
50057;BME280;36875;49.468;11.200;2023-03-15T05:11:11;97744.75;;;19.97;38.11
50057;BME280;36875;49.468;11.200;2023-03-15T05:13:37;97749.41;;;19.97;38.33
50057;BME280;36875;49.468;11.200;2023-03-15T05:16:02;97753.25;;;19.96;37.77
50057;BME280;36875;49.468;11.200;2023-03-15T05:18:29;97760.97;;;19.94;38.30
50057;BME280;36875;49.468;11.200;2023-03-15T05:20:55;97767.25;;;19.94;38.26
50057;BME280;36875;49.468;11.200;2023-03-15T05:23:20;97765.63;;;19.93;38.08
50057;BME280;36875;49.468;11.200;2023-03-15T05:25:49;97776.84;;;19.92;38.08
50057;BME280;36875;49.468;11.200;2023-03-15T05:28:18;97783.44;;;19.91;37.98
50057;BME280;36875;49.468;11.200;2023-03-15T05:30:43;97787.28;;;19.90;37.81
50057;BME280;36875;49.468;11.200;2023-03-15T05:33:09;97791.94;;;19.89;37.94
50057;BME280;36875;49.468;11.200;2023-03-15T05:35:36;97787.59;;;19.88;38.02
50057;BME280;36875;49.468;11.200;2023-03-15T05:38:02;97793.38;;;19.87;38.01
50057;BME280;36875;49.468;11.200;2023-03-15T05:40:28;97804.28;;;19.87;38.13
50057;BME280;36875;49.468;11.200;2023-03-15T05:42:54;97801.06;;;19.84;37.59
50057;BME280;36875;49.468;11.200;2023-03-15T05:45:20;97815.56;;;19.85;37.76
50057;BME280;36875;49.468;11.200;2023-03-15T05:47:45;97816.66;;;19.84;38.02
50057;BME280;36875;49.468;11.200;2023-03-15T05:50:11;97815.84;;;19.83;37.89
50057;BME280;36875;49.468;11.200;2023-03-15T05:52:37;97826.28;;;19.81;37.45
50057;BME280;36875;49.468;11.200;2023-03-15T05:55:03;97824.66;;;19.80;37.83
50057;BME280;36875;49.468;11.200;2023-03-15T05:57:29;97828.50;;;19.79;37.89
50057;BME280;36875;49.468;11.200;2023-03-15T05:59:55;97835.09;;;19.78;37.88
50057;BME280;36875;49.468;11.200;2023-03-15T06:02:21;97839.75;;;19.78;37.62
50057;BME280;36875;49.468;11.200;2023-03-15T06:04:46;97834.13;;;19.74;37.75
50057;BME280;36875;49.468;11.200;2023-03-15T06:07:12;97841.78;;;19.72;38.10
50057;BME280;36875;49.468;11.200;2023-03-15T06:09:39;97848.06;;;19.73;37.78
50057;BME280;36875;49.468;11.200;2023-03-15T06:12:05;97846.41;;;19.72;37.99
50057;BME280;36875;49.468;11.200;2023-03-15T06:14:30;97854.59;;;19.72;37.65
50057;BME280;36875;49.468;11.200;2023-03-15T06:16:57;97852.69;;;19.72;37.81
50057;BME280;36875;49.468;11.200;2023-03-15T06:19:22;97852.69;;;19.72;37.51
50057;BME280;36875;49.468;11.200;2023-03-15T06:21:48;97849.97;;;19.72;37.94
50057;BME280;36875;49.468;11.200;2023-03-15T06:24:14;97854.91;;;19.70;37.82
50057;BME280;36875;49.468;11.200;2023-03-15T06:26:41;97854.72;;;19.67;37.85
50057;BME280;36875;49.468;11.200;2023-03-15T06:29:06;97853.94;;;19.66;38.16
50057;BME280;36875;49.468;11.200;2023-03-15T06:31:32;97855.56;;;19.67;38.37
50057;BME280;36875;49.468;11.200;2023-03-15T06:33:57;97853.94;;;19.66;38.45
50057;BME280;36875;49.468;11.200;2023-03-15T06:36:24;97853.72;;;19.76;38.15
50057;BME280;36875;49.468;11.200;2023-03-15T06:38:50;97857.34;;;19.72;38.36
50057;BME280;36875;49.468;11.200;2023-03-15T06:41:18;97854.91;;;19.70;38.63
50057;BME280;36875;49.468;11.200;2023-03-15T06:43:45;97852.69;;;19.72;38.75
50057;BME280;36875;49.468;11.200;2023-03-15T06:46:10;97857.06;;;19.73;38.37
50057;BME280;36875;49.468;11.200;2023-03-15T06:48:36;97864.16;;;19.74;38.43
50057;BME280;36875;49.468;11.200;2023-03-15T06:51:01;97872.34;;;19.74;38.59
50057;BME280;36875;49.468;11.200;2023-03-15T06:53:30;97873.19;;;19.83;38.59
50057;BME280;36875;49.468;11.200;2023-03-15T06:55:55;97870.84;;;19.91;38.96
50057;BME280;36875;49.468;11.200;2023-03-15T06:58:21;97870.69;;;19.96;38.84
50057;BME280;36875;49.468;11.200;2023-03-15T07:00:48;97870.19;;;19.94;39.23
50057;BME280;36875;49.468;11.200;2023-03-15T07:03:13;97863.81;;;19.98;39.00
50057;BME280;36875;49.468;11.200;2023-03-15T07:05:39;97861.88;;;19.99;38.81
50057;BME280;36875;49.468;11.200;2023-03-15T07:08:05;97864.13;;;19.97;38.75
50057;BME280;36875;49.468;11.200;2023-03-15T07:10:31;97862.31;;;19.92;38.27
50057;BME280;36875;49.468;11.200;2023-03-15T07:12:56;97867.22;;;20.04;37.87
50057;BME280;36875;49.468;11.200;2023-03-15T07:15:22;97861.28;;;20.02;37.80
50057;BME280;36875;49.468;11.200;2023-03-15T07:17:48;97870.00;;;20.13;37.10
50057;BME280;36875;49.468;11.200;2023-03-15T07:20:14;97875.78;;;20.11;37.44
50057;BME280;36875;49.468;11.200;2023-03-15T07:22:40;97872.56;;;20.09;37.42
50057;BME280;36875;49.468;11.200;2023-03-15T07:25:06;97882.84;;;20.12;37.71
50057;BME280;36875;49.468;11.200;2023-03-15T07:27:32;97877.56;;;20.16;37.51
50057;BME280;36875;49.468;11.200;2023-03-15T07:29:57;97870.38;;;20.20;37.87
50057;BME280;36875;49.468;11.200;2023-03-15T07:32:23;97879.56;;;20.24;38.08
50057;BME280;36875;49.468;11.200;2023-03-15T07:34:50;97877.81;;;20.28;37.88
50057;BME280;36875;49.468;11.200;2023-03-15T07:37:15;97879.09;;;20.31;37.84
50057;BME280;36875;49.468;11.200;2023-03-15T07:39:41;97876.53;;;20.34;37.89
50057;BME280;36875;49.468;11.200;2023-03-15T07:42:07;97886.53;;;20.39;38.08
50057;BME280;36875;49.468;11.200;2023-03-15T07:44:33;97888.47;;;20.38;37.79
50057;BME280;36875;49.468;11.200;2023-03-15T07:46:58;97888.31;;;20.44;38.30
50057;BME280;36875;49.468;11.200;2023-03-15T07:49:24;97890.88;;;20.40;37.69
50057;BME280;36875;49.468;11.200;2023-03-15T07:51:51;97886.22;;;20.40;37.32
50057;BME280;36875;49.468;11.200;2023-03-15T07:54:16;97891.72;;;20.49;37.48
50057;BME280;36875;49.468;11.200;2023-03-15T07:56:43;97896.91;;;20.59;37.18
50057;BME280;36875;49.468;11.200;2023-03-15T07:59:09;97895.28;;;20.58;37.48
50057;BME280;36875;49.468;11.200;2023-03-15T08:01:35;97904.47;;;20.54;37.72
50057;BME280;36875;49.468;11.200;2023-03-15T08:04:00;97899.59;;;20.51;37.53
50057;BME280;36875;49.468;11.200;2023-03-15T08:06:26;97908.94;;;20.50;37.88
50057;BME280;36875;49.468;11.200;2023-03-15T08:08:53;97895.59;;;20.48;37.79
50057;BME280;36875;49.468;11.200;2023-03-15T08:11:18;97907.81;;;20.51;37.85
50057;BME280;36875;49.468;11.200;2023-03-15T08:13:44;97904.75;;;20.52;38.09
50057;BME280;36875;49.468;11.200;2023-03-15T08:16:09;97902.03;;;20.52;38.21
50057;BME280;36875;49.468;11.200;2023-03-15T08:18:35;97902.53;;;20.54;38.17
50057;BME280;36875;49.468;11.200;2023-03-15T08:21:00;97905.75;;;20.56;38.30
50057;BME280;36875;49.468;11.200;2023-03-15T08:23:26;97915.81;;;20.38;38.57
50057;BME280;36875;49.468;11.200;2023-03-15T08:25:53;97912.06;;;20.34;38.02
50057;BME280;36875;49.468;11.200;2023-03-15T08:28:18;97917.03;;;20.32;37.84
50057;BME280;36875;49.468;11.200;2023-03-15T08:30:44;97914.00;;;20.34;37.74
50057;BME280;36875;49.468;11.200;2023-03-15T08:33:09;97927.53;;;20.39;37.42
50057;BME280;36875;49.468;11.200;2023-03-15T08:35:36;97922.56;;;20.41;37.61
50057;BME280;36875;49.468;11.200;2023-03-15T08:38:02;97925.28;;;20.41;37.64
50057;BME280;36875;49.468;11.200;2023-03-15T08:40:28;97928.03;;;20.41;37.81
50057;BME280;36875;49.468;11.200;2023-03-15T08:42:56;97931.25;;;20.43;37.99
50057;BME280;36875;49.468;11.200;2023-03-15T08:45:23;97930.28;;;20.39;37.80
50057;BME280;36875;49.468;11.200;2023-03-15T08:47:49;97926.22;;;20.36;38.39
50057;BME280;36875;49.468;11.200;2023-03-15T08:50:16;97919.94;;;20.36;38.10
50057;BME280;36875;49.468;11.200;2023-03-15T08:52:42;97929.91;;;20.32;38.30
50057;BME280;36875;49.468;11.200;2023-03-15T08:55:08;97926.19;;;20.28;38.33
50057;BME280;36875;49.468;11.200;2023-03-15T08:57:34;97934.69;;;20.26;38.08
50057;BME280;36875;49.468;11.200;2023-03-15T09:00:03;97930.97;;;20.22;37.94
50057;BME280;36875;49.468;11.200;2023-03-15T09:02:40;97943.09;;;20.30;37.60
50057;BME280;36875;49.468;11.200;2023-03-15T09:05:05;97930.88;;;20.36;37.27
50057;BME280;36875;49.468;11.200;2023-03-15T09:07:31;97937.00;;;20.33;37.61
50057;BME280;36875;49.468;11.200;2023-03-15T09:09:57;97938.09;;;20.32;37.47
50057;BME280;36875;49.468;11.200;2023-03-15T09:12:23;97941.22;;;20.39;37.35
50057;BME280;36875;49.468;11.200;2023-03-15T09:14:49;97933.31;;;20.37;37.39
50057;BME280;36875;49.468;11.200;2023-03-15T09:17:16;97941.69;;;20.41;37.40
50057;BME280;36875;49.468;11.200;2023-03-15T09:19:41;97944.44;;;20.41;37.64
50057;BME280;36875;49.468;11.200;2023-03-15T09:22:07;97950.88;;;20.45;37.55
50057;BME280;36875;49.468;11.200;2023-03-15T09:24:36;97946.38;;;20.49;37.79
50057;BME280;36875;49.468;11.200;2023-03-15T09:27:01;97947.22;;;20.50;37.70
50057;BME280;36875;49.468;11.200;2023-03-15T09:29:27;97957.31;;;20.49;37.96
50057;BME280;36875;49.468;11.200;2023-03-15T09:31:53;97953.00;;;20.48;38.01
50057;BME280;36875;49.468;11.200;2023-03-15T09:34:20;97952.69;;;20.50;38.04
50057;BME280;36875;49.468;11.200;2023-03-15T09:36:46;97962.78;;;20.49;37.96
50057;BME280;36875;49.468;11.200;2023-03-15T09:39:16;97957.66;;;20.48;38.31
50057;BME280;36875;49.468;11.200;2023-03-15T09:41:43;97963.94;;;20.48;38.20
50057;BME280;36875;49.468;11.200;2023-03-15T09:44:16;97953.00;;;20.48;38.14
50057;BME280;36875;49.468;11.200;2023-03-15T09:46:56;97958.16;;;20.50;38.06
50057;BME280;36875;49.468;11.200;2023-03-15T09:49:32;97956.72;;;20.52;38.11
50057;BME280;36875;49.468;11.200;2023-03-15T09:52:07;97954.47;;;20.54;38.20
50057;BME280;36875;49.468;11.200;2023-03-15T09:54:39;97960.25;;;20.53;38.32
50057;BME280;36875;49.468;11.200;2023-03-15T09:57:11;97960.25;;;20.53;38.31
50057;BME280;36875;49.468;11.200;2023-03-15T09:59:42;97959.94;;;20.54;38.67
50057;BME280;36875;49.468;11.200;2023-03-15T10:02:17;97962.66;;;20.54;38.23
50057;BME280;36875;49.468;11.200;2023-03-15T10:04:46;97954.66;;;20.58;38.41
50057;BME280;36875;49.468;11.200;2023-03-15T10:07:14;97962.53;;;20.59;38.52
50057;BME280;36875;49.468;11.200;2023-03-15T10:09:41;97960.13;;;20.58;38.49
50057;BME280;36875;49.468;11.200;2023-03-15T10:12:09;97966.38;;;20.58;38.40
50057;BME280;36875;49.468;11.200;2023-03-15T10:14:52;97964.78;;;20.57;38.40
50057;BME280;36875;49.468;11.200;2023-03-15T10:17:28;97973.47;;;20.59;38.48
50057;BME280;36875;49.468;11.200;2023-03-15T10:20:03;97974.91;;;20.57;38.31
50057;BME280;36875;49.468;11.200;2023-03-15T10:22:35;97973.28;;;20.56;38.31
50057;BME280;36875;49.468;11.200;2023-03-15T10:25:04;97988.91;;;20.55;38.50
50057;BME280;36875;49.468;11.200;2023-03-15T10:27:37;97975.53;;;20.54;38.65
50057;BME280;36875;49.468;11.200;2023-03-15T10:30:14;97980.38;;;20.57;38.34
50057;BME280;36875;49.468;11.200;2023-03-15T10:32:42;97981.69;;;20.59;38.30
50057;BME280;36875;49.468;11.200;2023-03-15T10:35:13;97980.38;;;20.57;38.35
50057;BME280;36875;49.468;11.200;2023-03-15T10:37:39;97980.69;;;20.55;38.49
50057;BME280;36875;49.468;11.200;2023-03-15T10:40:08;97987.75;;;20.56;38.50
50057;BME280;36875;49.468;11.200;2023-03-15T10:42:41;97974.91;;;20.57;38.52
50057;BME280;36875;49.468;11.200;2023-03-15T10:45:17;97982.28;;;20.56;38.78
50057;BME280;36875;49.468;11.200;2023-03-15T10:47:43;97979.56;;;20.56;38.42
50057;BME280;36875;49.468;11.200;2023-03-15T10:50:12;97979.75;;;20.60;38.40
50057;BME280;36875;49.468;11.200;2023-03-15T10:52:42;97980.59;;;20.60;38.60
50057;BME280;36875;49.468;11.200;2023-03-15T10:55:12;97984.41;;;20.59;38.63
50057;BME280;36875;49.468;11.200;2023-03-15T10:57:40;97984.22;;;20.56;38.54
50057;BME280;36875;49.468;11.200;2023-03-15T11:00:24;97983.91;;;20.57;38.64
50057;BME280;36875;49.468;11.200;2023-03-15T11:03:00;97985.84;;;20.57;38.84
50057;BME280;36875;49.468;11.200;2023-03-15T11:05:30;97986.97;;;20.56;38.95
50057;BME280;36875;49.468;11.200;2023-03-15T11:07:58;97975.72;;;20.57;38.84
50057;BME280;36875;49.468;11.200;2023-03-15T11:10:25;97983.13;;;20.57;38.78
50057;BME280;36875;49.468;11.200;2023-03-15T11:13:13;97978.44;;;20.57;38.54
50057;BME280;36875;49.468;11.200;2023-03-15T11:15:48;97989.22;;;20.54;38.81
50057;BME280;36875;49.468;11.200;2023-03-15T11:18:18;97984.03;;;20.52;38.75
50057;BME280;36875;49.468;11.200;2023-03-15T11:20:50;97978.88;;;20.51;38.78
50057;BME280;36875;49.468;11.200;2023-03-15T11:23:21;97983.56;;;20.50;38.50
50057;BME280;36875;49.468;11.200;2023-03-15T11:25:49;97981.63;;;20.51;38.61
50057;BME280;36875;49.468;11.200;2023-03-15T11:28:17;97980.50;;;20.52;38.80
50057;BME280;36875;49.468;11.200;2023-03-15T11:30:44;97980.03;;;20.50;38.87
50057;BME280;36875;49.468;11.200;2023-03-15T11:33:21;97975.34;;;20.50;38.64
50057;BME280;36875;49.468;11.200;2023-03-15T11:35:51;97978.41;;;20.49;38.58
50057;BME280;36875;49.468;11.200;2023-03-15T11:38:25;97979.53;;;20.48;38.74
50057;BME280;36875;49.468;11.200;2023-03-15T11:40:55;97979.34;;;20.44;38.93
50057;BME280;36875;49.468;11.200;2023-03-15T11:43:25;97979.00;;;20.46;38.85
50057;BME280;36875;49.468;11.200;2023-03-15T11:45:55;97979.66;;;20.42;38.44
50057;BME280;36875;49.468;11.200;2023-03-15T11:48:25;97976.13;;;20.42;38.90
50057;BME280;36875;49.468;11.200;2023-03-15T11:50:54;97976.63;;;20.44;38.77
50057;BME280;36875;49.468;11.200;2023-03-15T11:53:22;97976.13;;;20.42;38.83
50057;BME280;36875;49.468;11.200;2023-03-15T11:55:50;97976.44;;;20.40;38.47
50057;BME280;36875;49.468;11.200;2023-03-15T11:58:30;97971.75;;;20.41;38.83
50057;BME280;36875;49.468;11.200;2023-03-15T12:01:00;97978.66;;;20.38;38.48
50057;BME280;36875;49.468;11.200;2023-03-15T12:03:36;97980.88;;;20.36;38.55
50057;BME280;36875;49.468;11.200;2023-03-15T12:06:09;97985.56;;;20.36;38.81
50057;BME280;36875;49.468;11.200;2023-03-15T12:08:44;97987.31;;;20.32;38.89
50057;BME280;36875;49.468;11.200;2023-03-15T12:11:10;97985.66;;;20.31;38.72
50057;BME280;36875;49.468;11.200;2023-03-15T12:13:36;97988.09;;;20.32;38.74
50057;BME280;36875;49.468;11.200;2023-03-15T12:16:05;97987.31;;;20.32;38.69
50057;BME280;36875;49.468;11.200;2023-03-15T12:18:32;97992.88;;;20.27;38.61
50057;BME280;36875;49.468;11.200;2023-03-15T12:21:16;97988.03;;;20.23;38.66
50057;BME280;36875;49.468;11.200;2023-03-15T12:23:47;97993.00;;;20.21;38.34
50057;BME280;36875;49.468;11.200;2023-03-15T12:26:26;97996.06;;;20.20;38.72
50057;BME280;36875;49.468;11.200;2023-03-15T12:29:05;98002.94;;;20.17;38.47
50057;BME280;36875;49.468;11.200;2023-03-15T12:32:04;97996.38;;;20.18;38.69
50057;BME280;36875;49.468;11.200;2023-03-15T12:34:41;97995.06;;;20.16;38.43
50057;BME280;36875;49.468;11.200;2023-03-15T12:37:13;97992.63;;;20.14;38.84
50057;BME280;36875;49.468;11.200;2023-03-15T12:39:43;97991.53;;;20.15;38.67
50057;BME280;36875;49.468;11.200;2023-03-15T12:45:35;97993.75;;;20.13;38.47
50057;BME280;36875;49.468;11.200;2023-03-15T12:48:21;97995.34;;;20.14;38.56
50057;BME280;36875;49.468;11.200;2023-03-15T12:51:15;97993.94;;;20.17;38.72
50057;BME280;36875;49.468;11.200;2023-03-15T12:54:01;98000.69;;;20.19;38.54
50057;BME280;36875;49.468;11.200;2023-03-15T12:56:46;97996.38;;;20.18;38.56